Humidity-temperature Sensor

Selected Measurement Type: Air Temperature

 
Air Temperature [°C]     6 entries per hour
Showing data from 7/12/2019 (00:00:00 Z) to 7/5/2019 (00:01:00 Z)
Previous Next [ Day | 3-Days | 7-Days ]
First Last
Prev [ Day | 3-Days | 7-Days ] Next
First Last

Start Time:     :
End Time:     :     
Time (in GMT) :00 :50 :40 :30 :20 :10
Previous Next [ Day | 3-Days | 7-Days ]
First Last
Prev [ Day | 3-Days | 7-Days ] Next
First Last


123 => good data
MM => data is determined as missing
-- => data not received/configured
Back to Top Back to Top
7/12/2019 00:00 to 23:10 24.08 24.12 24.13 24.10 24.11 24.11
7/11/2019 23:00 to 22:10 24.10 24.14 24.10 24.04 24.02 23.87
7/11/2019 22:00 to 21:10 24.01 23.92 24.08 24.08 24.11 24.15
7/11/2019 21:00 to 20:10 24.15 24.09 24.10 24.07 24.07 24.03
7/11/2019 20:00 to 19:10 24.00 23.98 24.01 24.08 23.89 23.84
7/11/2019 19:00 to 18:10 23.75 23.85 23.79 23.81 23.80 23.79
7/11/2019 18:00 to 17:10 23.75 23.69 23.65 23.61 23.83 23.75
7/11/2019 17:00 to 16:10 23.89 23.90 24.11 24.03 23.91 23.85
7/11/2019 16:00 to 15:10 23.84 23.83 23.80 23.85 23.85 23.79
7/11/2019 15:00 to 14:10 23.79 23.80 23.84 23.84 23.84 23.88
7/11/2019 14:00 to 13:10 23.86 23.85 23.88 23.84 23.82 23.70
7/11/2019 13:00 to 12:10 23.64 23.61 23.63 23.68 23.71 23.71
7/11/2019 12:00 to 11:10 23.71 23.71 23.72 23.74 23.76 23.76
7/11/2019 11:00 to 10:10 23.75 23.77 23.77 23.71 23.80 23.78
7/11/2019 10:00 to 9:10 23.80 23.80 23.77 23.75 23.69 23.67
7/11/2019 09:00 to 8:10 23.63 23.65 23.72 23.72 23.74 23.74
7/11/2019 08:00 to 7:10 23.72 23.71 23.64 23.71 23.80 23.80
7/11/2019 07:00 to 6:10 23.85 23.84 23.84 23.90 23.68 23.90
7/11/2019 06:00 to 5:10 23.89 23.84 23.81 23.90 23.90 23.90
7/11/2019 05:00 to 4:10 23.89 23.89 23.91 23.95 23.95 23.93
7/11/2019 04:00 to 3:10 23.91 23.94 23.91 23.88 23.83 23.78
7/11/2019 03:00 to 2:10 23.80 23.77 23.78 23.81 23.84 23.80
7/11/2019 02:00 to 1:10 23.83 23.81 23.83 23.89 23.90 23.92
7/11/2019 01:00 to 0:10 23.94 23.95 23.96 23.92 23.94 23.91
7/11/2019 00:00 to 23:10 23.94 23.96 24.00 23.92 24.00 23.95
7/10/2019 23:00 to 22:10 23.92 23.86 23.84 23.80 23.68 24.02
7/10/2019 22:00 to 21:10 23.98 24.18 24.17 24.13 24.20 24.10
7/10/2019 21:00 to 20:10 24.04 24.11 24.08 24.05 24.11 24.02
7/10/2019 20:00 to 19:10 23.96 23.93 23.87 23.95 23.94 23.96
7/10/2019 19:00 to 18:10 23.97 23.93 23.97 23.90 23.91 23.91
7/10/2019 18:00 to 17:10 23.98 23.82 23.82 23.79 23.74 23.60
7/10/2019 17:00 to 16:10 23.47 23.40 23.62 23.53 23.35 23.62
7/10/2019 16:00 to 15:10 23.66 23.75 23.78 23.81 23.74 23.68
7/10/2019 15:00 to 14:10 23.63 23.66 23.61 23.67 23.66 23.77
7/10/2019 14:00 to 13:10 23.65 23.59 23.61 23.63 23.64 23.57
7/10/2019 13:00 to 12:10 23.49 23.51 23.43 23.45 23.45 23.43
7/10/2019 12:00 to 11:10 23.47 23.46 23.43 23.44 23.39 23.42
7/10/2019 11:00 to 10:10 23.39 23.38 23.38 23.49 23.47 23.45
7/10/2019 10:00 to 9:10 23.39 23.41 23.48 23.40 23.40 23.49
7/10/2019 09:00 to 8:10 23.41 23.48 23.48 23.45 23.57 23.56
7/10/2019 08:00 to 7:10 23.51 23.49 23.54 23.60 23.53 23.59
7/10/2019 07:00 to 6:10 23.51 23.59 23.51 23.56 23.57 23.65
7/10/2019 06:00 to 5:10 23.61 23.54 23.53 23.59 23.57 23.60
7/10/2019 05:00 to 4:10 23.65 23.60 23.60 23.63 23.63 23.64
7/10/2019 04:00 to 3:10 23.60 23.60 23.67 23.66 23.59 23.71
7/10/2019 03:00 to 2:10 23.69 23.66 23.63 23.59 23.64 23.67
7/10/2019 02:00 to 1:10 23.66 23.69 23.70 23.70 23.73 23.75
7/10/2019 01:00 to 0:10 23.74 23.80 23.82 23.89 23.84 23.97
7/10/2019 00:00 to 23:10 23.90 23.88 23.88 23.89 23.81 23.86
7/9/2019 23:00 to 22:10 23.80 23.80 23.86 23.69 23.69 23.78
7/9/2019 22:00 to 21:10 23.78 23.88 23.75 23.80 23.88 23.80
7/9/2019 21:00 to 20:10 23.77 23.81 23.88 23.85 23.77 23.81
7/9/2019 20:00 to 19:10 23.65 23.79 23.76 23.76 23.68 23.76
7/9/2019 19:00 to 18:10 23.73 23.74 23.69 23.79 23.61 23.81
7/9/2019 18:00 to 17:10 23.74 23.87 23.81 23.87 23.67 23.66
7/9/2019 17:00 to 16:10 23.81 23.93 23.81 23.86 23.71 23.80
7/9/2019 16:00 to 15:10 23.89 23.85 23.83 23.94 23.97 23.95
7/9/2019 15:00 to 14:10 23.91 23.86 23.87 23.86 23.62 23.53
7/9/2019 14:00 to 13:10 23.64 23.60 23.58 23.53 23.57 23.53
7/9/2019 13:00 to 12:10 23.48 23.41 23.50 23.54 23.53 23.42
7/9/2019 12:00 to 11:10 23.55 23.50 23.51 23.49 23.45 23.51
7/9/2019 11:00 to 10:10 23.47 23.44 23.53 23.40 23.46 23.46
7/9/2019 10:00 to 9:10 23.42 23.43 23.43 23.45 23.40 23.43
7/9/2019 09:00 to 8:10 23.51 23.45 23.50 23.48 23.47 23.50
7/9/2019 08:00 to 7:10 23.54 23.51 23.52 23.49 23.54 23.57
7/9/2019 07:00 to 6:10 23.55 23.55 23.54 23.56 23.55 23.53
7/9/2019 06:00 to 5:10 23.54 23.58 23.61 23.59 23.65 23.68
7/9/2019 05:00 to 4:10 23.63 23.63 23.61 23.62 23.65 23.62
7/9/2019 04:00 to 3:10 23.64 23.64 23.65 23.68 23.68 23.75
7/9/2019 03:00 to 2:10 23.74 23.74 23.76 23.81 23.72 23.73
7/9/2019 02:00 to 1:10 23.78 23.82 23.80 23.80 23.84 23.93
7/9/2019 01:00 to 0:10 24.00 24.09 24.12 24.17 24.11 24.20
7/9/2019 00:00 to 23:10 24.13 24.09 24.03 24.11 24.03 24.02
7/8/2019 23:00 to 22:10 24.16 24.09 24.11 24.08 24.00 23.93
7/8/2019 22:00 to 21:10 24.03 24.02 23.95 23.97 23.94 23.98
7/8/2019 21:00 to 20:10 23.88 23.89 23.89 23.96 23.87 23.88
7/8/2019 20:00 to 19:10 23.78 23.79 23.82 23.86 23.89 23.82
7/8/2019 19:00 to 18:10 23.85 23.80 23.79 23.75 23.83 23.81
7/8/2019 18:00 to 17:10 23.78 23.70 23.83 23.74 23.73 23.83
7/8/2019 17:00 to 16:10 23.81 23.83 23.87 23.89 23.88 23.82
7/8/2019 16:00 to 15:10 23.99 23.97 24.04 23.95 23.98 24.09
7/8/2019 15:00 to 14:10 24.09 24.04 23.96 23.98 23.88 23.70
7/8/2019 14:00 to 13:10 23.56 23.63 23.56 23.55 23.51 23.50
7/8/2019 13:00 to 12:10 23.46 23.45 23.46 23.45 23.46 23.42
7/8/2019 12:00 to 11:10 23.46 23.41 23.42 23.41 23.37 23.40
7/8/2019 11:00 to 10:10 23.41 23.37 23.33 23.34 23.33 23.37
7/8/2019 10:00 to 9:10 23.39 23.34 23.35 23.37 23.42 23.38
7/8/2019 09:00 to 8:10 23.44 23.45 23.43 23.46 23.46 23.49
7/8/2019 08:00 to 7:10 23.48 23.53 23.51 23.52 23.54 23.57
7/8/2019 07:00 to 6:10 23.58 23.57 23.60 23.57 23.57 23.57
7/8/2019 06:00 to 5:10 23.59 23.59 23.64 23.61 23.66 23.67
7/8/2019 05:00 to 4:10 23.66 23.64 23.67 23.64 23.64 23.65
7/8/2019 04:00 to 3:10 23.67 23.70 23.70 23.70 23.73 23.78
7/8/2019 03:00 to 2:10 23.80 23.79 23.84 23.79 23.78 23.84
7/8/2019 02:00 to 1:10 23.83 23.85 23.86 23.88 23.85 23.86
7/8/2019 01:00 to 0:10 23.91 23.95 23.94 24.02 23.96 23.97
7/8/2019 00:00 to 23:10 23.99 24.08 24.08 24.10 24.13 24.12
7/7/2019 23:00 to 22:10 24.11 24.03 24.05 24.20 24.24 24.15
7/7/2019 22:00 to 21:10 24.05 24.13 24.18 24.10 24.13 24.14
7/7/2019 21:00 to 20:10 24.22 24.19 24.13 24.20 24.19 24.16
7/7/2019 20:00 to 19:10 24.20 24.10 24.11 24.10 24.09 24.03
7/7/2019 19:00 to 18:10 24.00 24.00 23.94 23.98 23.99 23.96
7/7/2019 18:00 to 17:10 23.96 23.95 23.94 23.87 23.84 23.83
7/7/2019 17:00 to 16:10 23.73 23.70 23.71 23.67 23.69 23.64
7/7/2019 16:00 to 15:10 23.68 23.65 23.66 23.70 23.70 23.61
7/7/2019 15:00 to 14:10 23.84 23.91 23.88 23.85 23.75 23.66
7/7/2019 14:00 to 13:10 23.52 23.34 23.33 23.36 23.32 23.36
7/7/2019 13:00 to 12:10 23.33 23.40 23.33 23.36 23.35 23.37
7/7/2019 12:00 to 11:10 23.34 23.34 23.39 23.33 23.29 23.32
7/7/2019 11:00 to 10:10 23.32 23.40 23.34 23.33 23.27 23.25
7/7/2019 10:00 to 9:10 23.21 23.33 23.32 23.35 23.31 23.30
7/7/2019 09:00 to 8:10 23.34 23.27 23.27 23.29 23.25 23.28
7/7/2019 08:00 to 7:10 23.26 23.26 23.36 23.35 23.35 23.36
7/7/2019 07:00 to 6:10 23.38 23.41 23.39 23.49 23.48 23.49
7/7/2019 06:00 to 5:10 23.50 23.59 23.50 23.55 23.59 23.57
7/7/2019 05:00 to 4:10 23.56 23.55 23.61 23.63 23.62 23.70
7/7/2019 04:00 to 3:10 23.71 23.71 23.75 23.74 23.78 23.78
7/7/2019 03:00 to 2:10 23.84 23.78 23.85 23.82 23.90 23.92
7/7/2019 02:00 to 1:10 23.92 23.88 23.85 23.87 23.92 24.03
7/7/2019 01:00 to 0:10 24.07 24.11 24.19 24.21 24.28 24.29
7/7/2019 00:00 to 23:10 24.16 24.23 24.15 24.26 24.24 24.26
7/6/2019 23:00 to 22:10 24.25 24.14 24.08 24.14 24.07 24.02
7/6/2019 22:00 to 21:10 24.10 24.02 24.01 23.98 24.07 24.04
7/6/2019 21:00 to 20:10 24.02 23.95 24.03 24.02 23.92 23.94
7/6/2019 20:00 to 19:10 24.03 24.09 24.00 23.95 23.98 24.01
7/6/2019 19:00 to 18:10 24.09 24.02 24.07 24.05 23.99 23.97
7/6/2019 18:00 to 17:10 23.97 23.96 24.07 23.93 23.90 23.88
7/6/2019 17:00 to 16:10 23.80 23.89 23.87 23.88 23.85 23.90
7/6/2019 16:00 to 15:10 23.90 23.94 24.01 24.04 24.12 24.03
7/6/2019 15:00 to 14:10 24.04 24.09 24.04 24.02 23.89 23.85
7/6/2019 14:00 to 13:10 23.69 23.48 23.50 23.43 23.42 23.36
7/6/2019 13:00 to 12:10 23.35 23.37 23.38 23.30 23.35 23.36
7/6/2019 12:00 to 11:10 23.41 23.40 23.35 23.24 23.24 23.34
7/6/2019 11:00 to 10:10 23.31 23.31 23.25 23.23 23.22 23.21
7/6/2019 10:00 to 9:10 23.21 23.19 23.22 23.25 23.31 23.26
7/6/2019 09:00 to 8:10 23.25 23.28 23.32 23.20 23.32 23.33
7/6/2019 08:00 to 7:10 23.38 23.33 23.39 23.43 23.42 23.47
7/6/2019 07:00 to 6:10 23.48 23.49 23.48 23.52 23.54 23.53
7/6/2019 06:00 to 5:10 23.57 23.56 23.58 23.59 23.63 23.62
7/6/2019 05:00 to 4:10 23.66 23.67 23.66 23.68 23.67 23.69
7/6/2019 04:00 to 3:10 23.70 23.69 23.71 23.68 23.69 23.73
7/6/2019 03:00 to 2:10 23.73 23.74 23.74 23.81 23.76 23.82
7/6/2019 02:00 to 1:10 23.83 23.77 23.83 23.79 23.80 23.85
7/6/2019 01:00 to 0:10 23.84 23.91 24.00 23.93 23.91 24.05
7/6/2019 00:00 to 23:10 24.04 24.03 24.02 24.01 24.00 24.01
7/5/2019 23:00 to 22:10 24.07 24.02 23.99 23.98 23.97 23.98
7/5/2019 22:00 to 21:10 23.97 24.01 24.03 24.05 24.00 23.95
7/5/2019 21:00 to 20:10 24.00 24.14 24.03 24.12 24.09 24.04
7/5/2019 20:00 to 19:10 24.08 24.11 24.09 24.11 24.10 24.01
7/5/2019 19:00 to 18:10 23.95 24.01 24.02 23.95 24.03 23.99
7/5/2019 18:00 to 17:10 24.05 24.03 24.01 24.02 24.05 24.05
7/5/2019 17:00 to 16:10 24.07 24.04 24.11 24.11 24.18 24.19
7/5/2019 16:00 to 15:10 24.21 24.17 24.17 24.28 24.26 24.28
7/5/2019 15:00 to 14:10 24.24 24.28 24.32 24.18 24.12 24.11
7/5/2019 14:00 to 13:10 24.10 24.00 23.85 23.86 23.83 23.73
7/5/2019 13:00 to 12:10 23.80 23.84 23.84 23.84 23.71 23.63
7/5/2019 12:00 to 11:10 23.79 23.76 23.72 23.67 23.69 23.72
7/5/2019 11:00 to 10:10 23.74 23.75 23.75 23.75 23.77 23.78
7/5/2019 10:00 to 9:10 23.79 23.78 23.77 23.80 23.79 23.82
7/5/2019 09:00 to 8:10 23.85 23.80 23.76 23.79 23.80 23.81
7/5/2019 08:00 to 7:10 23.85 23.88 23.91 23.93 23.92 23.93
7/5/2019 07:00 to 6:10 23.96 23.98 24.00 23.97 23.97 23.98
7/5/2019 06:00 to 5:10 24.01 24.00 24.01 24.02 24.02 24.00
7/5/2019 05:00 to 4:10 23.98 23.97 23.99 24.01 24.04 24.07
7/5/2019 04:00 to 3:10 24.09 24.12 24.13 24.15 24.18 24.21
7/5/2019 03:00 to 2:10 24.22 24.19 24.19 24.16 24.15 24.17
7/5/2019 02:00 to 1:10 24.19 24.21 24.27 24.28 24.33 24.40
7/5/2019 01:00 to 0:10 24.42 24.45 24.55 24.57 24.60 24.61